KACT/ACT METAR and TAF weather

Enter ICAO airport designator
Station Type Date Time Source
KACT METAR 2020/01/23 15:12 UTC NOAA

KACT 231512Z 34010KT 10SM OVC014 11/08 A3002 RMK AO2 T01060083


Station Type Date Time Source
KACT Decoded METAR 2020/01/23 15:12 UTC NOAA

WACO REGIONAL AIRPORT, TX, United States (KACT) 31-36N 97-13W 151M
Jan 23, 2020 - 10:12 AM EST / 2020.01.23 1512 UTC
Wind: from the NNW (340 degrees) at 12 MPH (10 KT):0
Visibility: 10 mile(s):0
Sky conditions: overcast
Temperature: 51.1 F (10.6 C)
Dew Point: 46.9 F (8.3 C)
Relative Humidity: 85%
Pressure (altimeter): 30.02 in. Hg (1016 hPa)
ob: KACT 231512Z 34010KT 10SM OVC014 11/08 A3002 RMK AO2 T01060083
cycle: 15

Station Type Date Time Source
KACT TAF 2020/01/23 15:40 UTC NOAA

TAF
AMD KACT 231438Z 2315/2412 33011KT P6SM FEW010 OVC017
FM231700 34011KT P6SM BKN020
FM232000 34014KT P6SM FEW180
FM232300 34005KT P6SM SKC

Example: see airport list